Time;durP1;ratioP1;P1;durP2;ratioP2;P2;SDS_P1;SDS_P2;PMS_P1;PMS_P2;Temp;Humidity;BMP_temperature;BMP_pressure;BME280_temperature;BME280_humidity;BME280_pressure;Samples;Min_cycle;Max_cycle;Signal;HPM_P1;HPM_P2
2021/06/04 00:00:30;;;;;;;16.80;15.10;;;20.30;99.90;;;;;;5107563;28;20088;-40
2021/06/04 00:03:01;;;;;;;16.80;15.15;;;20.30;99.90;;;;;;5087993;28;20364;-39
2021/06/04 00:05:32;;;;;;;16.20;14.70;;;20.30;99.90;;;;;;5104710;28;20106;-34
2021/06/04 00:07:58;;;;;;;14.60;13.23;;;20.30;99.90;;;;;;5107534;27;20028;-39
2021/06/04 00:10:30;;;;;;;13.95;12.57;;;20.30;99.90;;;;;;5108056;28;20031;-42
2021/06/04 00:13:16;;;;;;;14.80;13.30;;;20.30;99.90;;;;;;5107784;28;20762;-41
2021/06/04 00:15:42;;;;;;;13.45;12.15;;;20.30;99.90;;;;;;5107510;28;20038;-38
2021/06/04 00:18:08;;;;;;;20.08;18.08;;;20.30;99.90;;;;;;5108220;28;20027;-40
2021/06/04 00:20:33;;;;;;;17.55;15.57;;;20.30;99.90;;;;;;5108116;28;20138;-43
2021/06/04 00:23:04;;;;;;;19.30;17.40;;;20.20;99.90;;;;;;5107678;28;20080;-37
2021/06/04 00:25:29;;;;;;;18.08;16.23;;;20.20;99.90;;;;;;5107798;28;20123;-41
2021/06/04 00:27:55;;;;;;;20.40;18.23;;;20.20;99.90;;;;;;5107580;28;20107;-40
2021/06/04 00:30:21;;;;;;;18.23;15.45;;;20.10;99.90;;;;;;5107572;28;20474;-40
2021/06/04 00:32:47;;;;;;;19.10;16.65;;;20.10;99.90;;;;;;5107764;28;20045;-45
2021/06/04 00:35:13;;;;;;;20.40;17.38;;;20.10;99.90;;;;;;5107857;28;20471;-39
2021/06/04 00:37:39;;;;;;;17.98;16.08;;;20.00;99.90;;;;;;5108233;28;20023;-40
2021/06/04 00:40:25;;;;;;;18.85;16.85;;;20.00;99.90;;;;;;5107710;28;20038;-41
2021/06/04 00:42:51;;;;;;;19.48;17.58;;;20.00;99.90;;;;;;5097197;28;20023;-43
2021/06/04 00:45:22;;;;;;;17.95;16.17;;;20.00;99.90;;;;;;5107541;28;20051;-39
2021/06/04 00:47:48;;;;;;;21.25;18.95;;;20.00;99.90;;;;;;5108034;27;20027;-37
2021/06/04 00:50:18;;;;;;;22.77;20.23;;;20.00;99.90;;;;;;5107278;28;20084;-38
2021/06/04 00:52:46;;;;;;;25.35;22.65;;;19.90;99.90;;;;;;5108017;28;20130;-40
2021/06/04 00:55:16;;;;;;;23.02;20.60;;;19.90;99.90;;;;;;5107811;28;20088;-40
2021/06/04 00:57:43;;;;;;;22.30;19.90;;;19.80;99.90;;;;;;5106239;28;20035;-39
2021/06/04 01:00:18;;;;;;;21.00;18.80;;;19.80;99.90;;;;;;5107920;28;20042;-38
2021/06/04 01:02:44;;;;;;;21.73;19.40;;;19.90;99.90;;;;;;5107540;28;20378;-39
2021/06/04 01:05:11;;;;;;;20.27;18.17;;;19.90;99.90;;;;;;5107280;28;20016;-39
2021/06/04 01:07:59;;;;;;;19.15;17.17;;;19.90;99.90;;;;;;5107565;28;20032;-40
2021/06/04 01:10:36;;;;;;;19.80;17.77;;;19.90;99.90;;;;;;5106790;28;20030;-40
2021/06/04 01:13:19;;;;;;;20.08;17.95;;;19.90;99.90;;;;;;5107023;28;20055;-40
2021/06/04 01:16:19;;;;;;;20.48;18.35;;;19.80;99.90;;;;;;5107224;28;20043;-36
2021/06/04 01:18:57;;;;;;;19.77;17.67;;;19.90;99.90;;;;;;5097988;28;20035;-40
2021/06/04 01:21:48;;;;;;;18.80;16.77;;;19.80;99.90;;;;;;5106686;28;20069;-41
2021/06/04 01:24:55;;;;;;;22.30;19.70;;;19.80;99.90;;;;;;5096763;28;20032;-40
2021/06/04 01:27:33;;;;;;;23.00;20.58;;;19.80;99.90;;;;;;5107560;28;20020;-40
2021/06/04 01:30:37;;;;;;;25.70;22.17;;;19.70;99.90;;;;;;5106962;28;20031;-40
2021/06/04 01:33:16;;;;;;;26.80;22.38;;;19.70;99.90;;;;;;5022659;28;20330;-40
2021/06/04 01:35:46;;;;;;;21.90;19.55;;;19.70;99.90;;;;;;5023466;28;20065;-38
2021/06/04 01:38:15;;;;;;;22.33;19.77;;;19.70;99.90;;;;;;5071697;28;20060;-41
2021/06/04 01:40:46;;;;;;;24.77;21.08;;;19.70;99.90;;;;;;5106585;28;20031;-39
2021/06/04 01:43:20;;;;;;;25.38;21.67;;;19.70;99.90;;;;;;5106650;28;20229;-40
2021/06/04 01:45:53;;;;;;;31.17;24.88;;;19.60;99.90;;;;;;5106132;28;20032;-36
2021/06/04 01:48:26;;;;;;;28.77;22.80;;;19.60;99.90;;;;;;5106929;28;20104;-40
2021/06/04 01:50:59;;;;;;;28.85;24.30;;;19.50;99.90;;;;;;5106847;28;20160;-42
2021/06/04 01:53:41;;;;;;;41.47;33.78;;;19.50;99.90;;;;;;5106547;28;20063;-39
2021/06/04 01:56:13;;;;;;;37.25;29.88;;;19.40;99.90;;;;;;5107005;28;20023;-38
2021/06/04 01:58:51;;;;;;;34.13;27.27;;;19.30;99.90;;;;;;5106804;28;20102;-38
2021/06/04 02:01:24;;;;;;;31.73;24.60;;;19.30;99.90;;;;;;5106437;28;20039;-41
2021/06/04 02:03:50;;;;;;;35.33;28.30;;;19.20;99.90;;;;;;5106015;28;20038;-40
2021/06/04 02:06:16;;;;;;;43.53;32.80;;;19.20;99.90;;;;;;5106225;28;20027;-39
2021/06/04 02:08:49;;;;;;;37.88;31.23;;;19.20;99.90;;;;;;5106756;28;20015;-42
2021/06/04 02:11:20;;;;;;;40.83;31.10;;;19.20;99.90;;;;;;5106381;28;20379;-39
2021/06/04 02:13:48;;;;;;;36.28;30.05;;;19.20;99.90;;;;;;5105655;28;20065;-39
2021/06/04 02:16:48;;;;;;;35.50;26.23;;;19.10;99.90;;;;;;5106654;28;20024;-36
2021/06/04 02:19:48;;;;;;;32.53;26.05;;;19.10;99.90;;;;;;5106793;28;20062;-44
2021/06/04 02:22:25;;;;;;;34.15;27.60;;;19.10;99.90;;;;;;5106265;28;20036;-39
2021/06/04 02:25:01;;;;;;;41.67;32.90;;;19.10;99.90;;;;;;5106135;28;20042;-42
2021/06/04 02:27:35;;;;;;;34.53;28.48;;;19.00;99.90;;;;;;5107073;28;20054;-40
2021/06/04 02:30:11;;;;;;;38.75;31.45;;;19.00;99.90;;;;;;5110074;28;20020;-40
2021/06/04 02:32:50;;;;;;;39.03;31.90;;;18.90;99.90;;;;;;5110396;28;20027;-40
2021/06/04 02:35:31;;;;;;;39.85;31.40;;;18.90;99.90;;;;;;5109069;28;20034;-41
2021/06/04 02:38:09;;;;;;;34.53;26.77;;;18.80;99.90;;;;;;5089489;28;20035;-38
2021/06/04 02:40:39;;;;;;;33.15;27.90;;;18.80;99.90;;;;;;5106631;28;20118;-40
2021/06/04 02:43:12;;;;;;;35.53;28.33;;;18.80;99.90;;;;;;5089506;28;20354;-39
2021/06/04 02:45:37;;;;;;;;;;;18.80;99.90;;;;;;5105715;28;20110;-41
2021/06/04 02:48:12;;;;;;;25.65;21.15;;;18.80;99.90;;;;;;5109526;28;19998;-40
2021/06/04 02:50:49;;;;;;;33.65;27.70;;;18.80;99.90;;;;;;5109928;28;20050;-41
2021/06/04 02:53:23;;;;;;;31.90;25.65;;;18.70;99.90;;;;;;5110080;28;20073;-42
2021/06/04 02:56:13;;;;;;;31.13;25.35;;;18.70;99.90;;;;;;5109239;28;20118;-39
2021/06/04 02:58:42;;;;;;;29.33;23.27;;;18.60;99.90;;;;;;5090148;28;20347;-40
2021/06/04 03:01:09;;;;;;;27.88;23.45;;;18.60;99.90;;;;;;5104275;28;20466;-40
2021/06/04 03:03:36;;;;;;;27.45;22.50;;;18.60;99.90;;;;;;5109508;28;20038;-39
2021/06/04 03:06:02;;;;;;;30.42;25.63;;;18.60;99.90;;;;;;5109366;28;20016;-40
2021/06/04 03:08:32;;;;;;;29.20;25.38;;;18.60;99.90;;;;;;5109855;28;20517;-40
2021/06/04 03:10:59;;;;;;;33.67;25.45;;;18.60;99.90;;;;;;5108779;28;20024;-39
2021/06/04 03:13:29;;;;;;;31.15;26.40;;;18.60;99.90;;;;;;5109584;28;20043;-40
2021/06/04 03:16:02;;;;;;;32.38;26.77;;;18.60;99.90;;;;;;5109007;28;20374;-38
2021/06/04 03:18:37;;;;;;;35.03;28.52;;;18.60;99.90;;;;;;5109455;28;20477;-40
2021/06/04 03:21:08;;;;;;;35.80;26.45;;;18.50;99.90;;;;;;5108633;27;20043;-43
2021/06/04 03:23:37;;;;;;;31.60;25.75;;;18.60;99.90;;;;;;5108919;28;20031;-40
2021/06/04 03:26:08;;;;;;;30.85;26.15;;;18.50;99.90;;;;;;5108885;28;20506;-38
2021/06/04 03:28:34;;;;;;;29.38;24.02;;;18.50;99.90;;;;;;5109554;28;20544;-41
2021/06/04 03:31:00;;;;;;;28.63;24.45;;;18.50;99.90;;;;;;5108317;28;20028;-39
2021/06/04 03:33:34;;;;;;;30.73;24.42;;;18.50;99.90;;;;;;5097649;28;20020;-40
2021/06/04 03:36:11;;;;;;;27.70;23.58;;;18.50;99.90;;;;;;5108597;27;20354;-40
2021/06/04 03:38:37;;;;;;;36.13;29.13;;;18.50;99.90;;;;;;5097478;28;20019;-40
2021/06/04 03:41:03;;;;;;;32.05;26.52;;;18.40;99.90;;;;;;5107960;28;20038;-40
2021/06/04 03:43:29;;;;;;;32.05;26.10;;;18.40;99.90;;;;;;5109080;28;20024;-40
2021/06/04 03:45:56;;;;;;;31.45;26.02;;;18.40;99.90;;;;;;5107909;28;20471;-36
2021/06/04 03:48:31;;;;;;;30.45;23.83;;;18.30;99.90;;;;;;5107723;28;20015;-46
2021/06/04 03:50:59;;;;;;;31.60;24.88;;;18.30;99.90;;;;;;5108951;27;20104;-42
2021/06/04 03:53:26;;;;;;;31.23;26.60;;;18.30;99.90;;;;;;5108896;28;20055;-41
2021/06/04 03:55:52;;;;;;;32.47;26.73;;;18.40;99.90;;;;;;5108579;28;20081;-40
2021/06/04 03:58:19;;;;;;;32.03;25.75;;;18.40;99.90;;;;;;5108790;28;20377;-40
2021/06/04 04:00:49;;;;;;;28.75;24.42;;;18.40;99.90;;;;;;5108044;28;20031;-40
2021/06/04 04:03:18;;;;;;;32.80;26.63;;;18.40;99.90;;;;;;5108855;28;20012;-40
2021/06/04 04:05:44;;;;;;;30.25;25.73;;;18.40;99.90;;;;;;5108384;28;20070;-40
2021/06/04 04:08:12;;;;;;;30.65;24.80;;;18.40;99.90;;;;;;5108232;28;20119;-39
2021/06/04 04:10:42;;;;;;;31.55;25.17;;;18.40;99.90;;;;;;5109264;28;20239;-38
2021/06/04 04:13:09;;;;;;;27.63;23.15;;;18.40;99.90;;;;;;5107313;28;20161;-41
2021/06/04 04:15:35;;;;;;;32.08;24.50;;;18.40;99.90;;;;;;5108649;28;20525;-40
2021/06/04 04:18:02;;;;;;;29.15;25.42;;;18.30;99.90;;;;;;5107884;28;20106;-39
2021/06/04 04:20:38;;;;;;;29.23;24.40;;;18.30;99.90;;;;;;5108031;28;20067;-41
2021/06/04 04:23:06;;;;;;;26.70;23.00;;;18.40;99.90;;;;;;5107889;28;20016;-39
2021/06/04 04:25:36;;;;;;;33.95;28.70;;;18.40;99.90;;;;;;5107880;28;20035;-39
2021/06/04 04:28:04;;;;;;;37.80;29.08;;;18.40;99.90;;;;;;5107412;28;20016;-40
2021/06/04 04:30:30;;;;;;;30.48;25.38;;;18.30;99.90;;;;;;5108195;28;20092;-40
2021/06/04 04:32:55;;;;;;;28.92;24.92;;;18.30;99.90;;;;;;5107685;28;20031;-39
2021/06/04 04:35:25;;;;;;;27.80;23.77;;;18.30;99.90;;;;;;5107804;28;20022;-40
2021/06/04 04:37:50;;;;;;;33.88;25.27;;;18.30;99.90;;;;;;5107153;28;20108;-39
2021/06/04 04:40:17;;;;;;;30.35;24.05;;;18.30;99.90;;;;;;5107556;28;20384;-40
2021/06/04 04:42:44;;;;;;;29.45;23.83;;;18.30;99.90;;;;;;5106585;28;20033;-40
2021/06/04 04:45:13;;;;;;;34.63;24.83;;;18.30;99.90;;;;;;5107313;28;20012;-40
2021/06/04 04:47:40;;;;;;;34.15;26.40;;;18.30;99.90;;;;;;5107905;28;20110;-40
2021/06/04 04:50:07;;;;;;;31.52;25.38;;;18.40;99.90;;;;;;5106425;28;20428;-40
2021/06/04 04:52:32;;;;;;;33.13;25.98;;;18.40;99.90;;;;;;5107702;28;20067;-40
2021/06/04 04:54:58;;;;;;;31.17;25.25;;;18.50;99.90;;;;;;5106442;28;20088;-39
2021/06/04 04:57:26;;;;;;;33.40;26.55;;;18.60;99.90;;;;;;5108385;28;20016;-40
2021/06/04 04:59:53;;;;;;;33.75;26.50;;;18.70;99.90;;;;;;5107221;28;20114;-41
2021/06/04 05:02:19;;;;;;;32.20;26.40;;;18.70;99.90;;;;;;5105657;28;20077;-39
2021/06/04 05:04:45;;;;;;;30.05;24.27;;;18.80;99.90;;;;;;5107096;28;20023;-38
2021/06/04 05:07:17;;;;;;;31.60;25.85;;;18.80;99.90;;;;;;5108076;28;20050;-40
2021/06/04 05:09:43;;;;;;;;;;;18.80;99.90;;;;;;5107412;28;20484;-40
2021/06/04 05:12:09;;;;;;;32.63;25.83;;;18.90;99.90;;;;;;5107786;28;19907;-42
2021/06/04 05:14:35;;;;;;;31.30;24.98;;;18.90;99.90;;;;;;5107098;28;20538;-39
2021/06/04 05:17:01;;;;;;;30.85;26.00;;;18.90;99.90;;;;;;5107172;28;20535;-42
2021/06/04 05:19:27;;;;;;;33.00;25.45;;;18.90;99.90;;;;;;5107573;28;20032;-39
2021/06/04 05:21:56;;;;;;;29.27;24.60;;;18.90;99.90;;;;;;5107220;28;20466;-41
2021/06/04 05:24:22;;;;;;;30.48;24.95;;;18.90;99.90;;;;;;5107480;28;20094;-40
2021/06/04 05:26:51;;;;;;;32.78;25.85;;;18.90;99.90;;;;;;5107038;28;20094;-40
2021/06/04 05:29:17;;;;;;;30.05;24.90;;;19.00;99.90;;;;;;5107216;28;20024;-40
2021/06/04 05:31:44;;;;;;;28.05;21.48;;;19.00;99.90;;;;;;5106560;28;20098;-40
2021/06/04 05:34:10;;;;;;;29.85;23.80;;;19.00;99.90;;;;;;5107530;28;20099;-40
2021/06/04 05:36:38;;;;;;;29.05;22.83;;;19.00;99.90;;;;;;5107187;28;20031;-41
2021/06/04 05:39:18;;;;;;;19.08;16.85;;;19.10;99.90;;;;;;5105721;28;20102;-40
2021/06/04 05:41:47;;;;;;;19.08;15.70;;;19.10;99.90;;;;;;5107166;28;20042;-35
2021/06/04 05:44:14;;;;;;;18.58;16.23;;;19.10;99.90;;;;;;5103491;28;20344;-41
2021/06/04 05:46:45;;;;;;;20.38;16.77;;;19.10;99.90;;;;;;5105653;28;20036;-40
2021/06/04 05:49:10;;;;;;;16.63;14.75;;;19.10;99.90;;;;;;5105998;28;20104;-40
2021/06/04 05:51:37;;;;;;;19.42;16.15;;;19.20;99.90;;;;;;5105948;28;20035;-39
2021/06/04 05:54:03;;;;;;;18.65;15.57;;;19.20;99.90;;;;;;5105485;28;20042;-40
2021/06/04 05:56:29;;;;;;;20.25;16.10;;;19.20;99.90;;;;;;5106583;28;20067;-40
2021/06/04 05:58:56;;;;;;;21.88;17.25;;;19.20;99.90;;;;;;5106602;28;20433;-43
2021/06/04 06:01:31;;;;;;;21.73;16.55;;;19.20;99.90;;;;;;5107109;28;20073;-39
2021/06/04 06:03:58;;;;;;;19.73;15.95;;;19.20;99.90;;;;;;5109559;28;20202;-41
2021/06/04 06:06:24;;;;;;;21.98;17.05;;;19.20;99.90;;;;;;5111253;28;20037;-41
2021/06/04 06:08:50;;;;;;;19.05;15.68;;;19.20;99.90;;;;;;5111641;27;20023;-41
2021/06/04 06:11:22;;;;;;;19.30;16.23;;;19.20;99.90;;;;;;5110935;28;20035;-38
2021/06/04 06:13:48;;;;;;;21.45;17.52;;;19.30;99.90;;;;;;5099327;28;20126;-41
2021/06/04 06:16:14;;;;;;;25.65;17.50;;;19.30;99.90;;;;;;5110437;28;20565;-39
2021/06/04 06:18:39;;;;;;;24.10;17.38;;;19.30;99.90;;;;;;5110974;28;20041;-44
2021/06/04 06:21:05;;;;;;;21.30;17.67;;;19.40;99.90;;;;;;5109948;28;20104;-40
2021/06/04 06:23:33;;;;;;;22.42;18.70;;;19.40;99.90;;;;;;5110833;28;20105;-39
2021/06/04 06:26:03;;;;;;;22.52;18.98;;;19.40;99.90;;;;;;5109809;27;20024;-39
2021/06/04 06:28:33;;;;;;;22.58;18.30;;;19.50;99.90;;;;;;5108688;28;20110;-39
2021/06/04 06:31:00;;;;;;;21.55;18.33;;;19.60;99.90;;;;;;5111009;28;20035;-39
2021/06/04 06:33:26;;;;;;;24.80;19.73;;;19.70;99.90;;;;;;5109771;28;20264;-39
2021/06/04 06:35:59;;;;;;;22.58;18.10;;;19.80;99.90;;;;;;5110840;27;20031;-40
2021/06/04 06:38:27;;;;;;;23.02;17.40;;;19.90;99.90;;;;;;5110503;28;20027;-41
2021/06/04 06:40:54;;;;;;;21.30;16.52;;;20.00;99.70;;;;;;5109570;27;20134;-39
2021/06/04 06:43:22;;;;;;;19.45;16.85;;;20.10;99.60;;;;;;5110141;28;20466;-42
2021/06/04 06:45:47;;;;;;;19.10;16.85;;;20.20;99.50;;;;;;5110503;27;20027;-39
2021/06/04 06:48:14;;;;;;;19.48;15.65;;;20.30;99.40;;;;;;5109118;28;20713;-40
2021/06/04 06:50:41;;;;;;;21.35;15.65;;;20.40;99.30;;;;;;5110624;28;20371;-38
2021/06/04 06:53:24;;;;;;;15.07;12.40;;;20.50;99.20;;;;;;5110571;28;20086;-41
2021/06/04 06:55:52;;;;;;;16.60;14.10;;;20.60;99.10;;;;;;5110097;28;20317;-39
2021/06/04 06:58:19;;;;;;;19.45;14.70;;;20.70;99.00;;;;;;5110660;28;20051;-40
2021/06/04 07:00:47;;;;;;;16.73;14.18;;;20.80;98.90;;;;;;5109984;28;20097;-39
2021/06/04 07:03:15;;;;;;;21.73;15.93;;;20.80;98.70;;;;;;5109087;28;20016;-40
2021/06/04 07:05:41;;;;;;;16.35;14.45;;;20.90;98.90;;;;;;5110284;28;20028;-39
2021/06/04 07:08:11;;;;;;;15.02;13.02;;;21.00;98.60;;;;;;5109850;28;20024;-41
2021/06/04 07:10:37;;;;;;;16.13;13.05;;;21.00;98.50;;;;;;5110332;28;20095;-39
2021/06/04 07:13:09;;;;;;;16.00;13.55;;;21.20;98.50;;;;;;5109581;28;20449;-40
2021/06/04 07:15:35;;;;;;;16.20;13.03;;;21.20;98.40;;;;;;5108136;28;20419;-43
2021/06/04 07:18:01;;;;;;;18.20;14.48;;;21.40;98.30;;;;;;5109065;28;20403;-41
2021/06/04 07:20:29;;;;;;;16.83;14.07;;;21.40;98.10;;;;;;5109728;28;20047;-41
2021/06/04 07:22:57;;;;;;;14.93;12.55;;;21.50;98.10;;;;;;5109293;28;20020;-40
2021/06/04 07:25:25;;;;;;;14.43;12.48;;;21.50;98.00;;;;;;5110385;28;20020;-39
2021/06/04 07:27:51;;;;;;;13.75;11.68;;;21.50;98.00;;;;;;5109706;28;20028;-40
2021/06/04 07:30:21;;;;;;;13.43;11.32;;;21.60;97.80;;;;;;5109136;28;20028;-40
2021/06/04 07:32:47;;;;;;;13.15;11.80;;;21.60;97.80;;;;;;5089773;28;20157;-40
2021/06/04 07:35:16;;;;;;;15.82;11.82;;;21.60;97.70;;;;;;5104024;28;20102;-39
2021/06/04 07:37:43;;;;;;;14.32;11.60;;;21.70;97.60;;;;;;5108784;28;20355;-40
2021/06/04 07:40:12;;;;;;;10.10;9.05;;;21.80;97.60;;;;;;5109399;28;20063;-40
2021/06/04 07:42:39;;;;;;;10.32;9.32;;;21.80;97.50;;;;;;5109826;28;20086;-39
2021/06/04 07:45:07;;;;;;;9.65;8.45;;;21.80;97.40;;;;;;5108879;28;20008;-40
2021/06/04 07:47:33;;;;;;;9.07;8.18;;;21.90;97.30;;;;;;5110138;28;20036;-42
2021/06/04 07:49:58;;;;;;;12.63;10.45;;;21.90;97.10;;;;;;5108745;28;20044;-40
2021/06/04 07:52:24;;;;;;;11.45;10.02;;;21.90;96.80;;;;;;5109188;28;20027;-40
2021/06/04 07:54:51;;;;;;;9.00;7.93;;;21.90;96.40;;;;;;5109379;28;20393;-40
2021/06/04 07:57:17;;;;;;;9.02;7.68;;;21.90;96.60;;;;;;5107209;28;20149;-40
2021/06/04 07:59:42;;;;;;;8.13;6.70;;;21.90;96.60;;;;;;5108495;28;20110;-40
2021/06/04 08:02:08;;;;;;;10.20;8.40;;;22.00;96.60;;;;;;5109100;28;20620;-40
2021/06/04 08:04:34;;;;;;;10.95;8.90;;;22.00;96.60;;;;;;5109169;28;20023;-40
2021/06/04 08:06:59;;;;;;;10.32;8.13;;;22.10;96.50;;;;;;5108273;28;20047;-39
2021/06/04 08:09:25;;;;;;;9.57;8.20;;;22.10;96.50;;;;;;5109949;28;20114;-39
2021/06/04 08:11:58;;;;;;;8.55;7.65;;;22.10;96.40;;;;;;5108417;28;20118;-44
2021/06/04 08:14:26;;;;;;;8.70;7.80;;;22.10;96.30;;;;;;5109324;28;20051;-40
2021/06/04 08:16:54;;;;;;;7.95;7.15;;;22.20;96.20;;;;;;5108255;28;20027;-39
2021/06/04 08:19:20;;;;;;;9.25;8.35;;;22.30;96.20;;;;;;5108924;28;20362;-39
2021/06/04 08:21:50;;;;;;;8.90;8.00;;;22.30;96.10;;;;;;5108506;28;20529;-39
2021/06/04 08:24:19;;;;;;;9.07;8.18;;;22.40;95.90;;;;;;5108829;28;20030;-39
2021/06/04 08:26:46;;;;;;;8.23;7.43;;;22.50;95.80;;;;;;5107497;28;20031;-40
2021/06/04 08:29:12;;;;;;;7.05;6.35;;;22.70;95.70;;;;;;5107755;28;20032;-40
2021/06/04 08:31:38;;;;;;;7.45;6.65;;;22.80;95.60;;;;;;5108404;28;20168;-41
2021/06/04 08:34:05;;;;;;;8.18;7.38;;;22.80;95.50;;;;;;5107993;28;20364;-40
2021/06/04 08:36:38;;;;;;;7.82;6.70;;;22.80;95.40;;;;;;5108454;28;20034;-39
2021/06/04 08:39:29;;;;;;;6.15;5.40;;;22.90;95.40;;;;;;5107829;28;20024;-39
2021/06/04 08:42:11;;;;;;;7.28;6.55;;;22.90;95.30;;;;;;5106793;28;20130;-42
2021/06/04 08:45:13;;;;;;;7.78;6.97;;;22.90;95.40;;;;;;5108428;28;20015;-42
2021/06/04 08:47:41;;;;;;;6.13;5.53;;;22.80;95.00;;;;;;5099255;28;20034;-40
2021/06/04 08:50:37;;;;;;;5.95;5.35;;;22.80;95.10;;;;;;5109510;27;20016;-39
2021/06/04 08:53:37;;;;;;;8.82;7.57;;;22.80;95.10;;;;;;5110866;27;20043;-39
2021/06/04 08:56:08;;;;;;;8.27;7.38;;;22.80;95.10;;;;;;5086749;28;20046;-42
2021/06/04 08:59:01;;;;;;;9.35;7.70;;;22.80;95.00;;;;;;5106934;28;20363;-39
2021/06/04 09:02:05;;;;;;;8.88;7.97;;;22.80;95.10;;;;;;5106063;28;20363;-38
2021/06/04 09:04:43;;;;;;;7.90;7.03;;;22.80;95.00;;;;;;5063982;28;20134;-41
2021/06/04 09:07:14;;;;;;;7.65;6.78;;;22.90;95.00;;;;;;5102652;28;20415;-38
2021/06/04 09:10:07;;;;;;;9.80;7.30;;;22.90;95.00;;;;;;5105113;28;20015;-38
2021/06/04 09:12:54;;;;;;;9.00;7.15;;;23.00;94.90;;;;;;5107304;28;20033;-41
2021/06/04 09:15:26;;;;;;;7.07;6.38;;;23.20;94.80;;;;;;5107464;28;20087;-39
2021/06/04 09:18:04;;;;;;;6.97;5.70;;;23.30;94.70;;;;;;5107726;28;20099;-40
2021/06/04 09:20:57;;;;;;;12.05;8.68;;;23.50;94.50;;;;;;5107675;28;20642;-40
2021/06/04 09:23:29;;;;;;;9.88;8.15;;;23.60;94.30;;;;;;5104925;28;20106;-39
2021/06/04 09:25:56;;;;;;;7.30;6.60;;;23.80;94.30;;;;;;5107823;28;20385;-40
2021/06/04 09:28:32;;;;;;;8.75;7.93;;;23.90;94.10;;;;;;5107515;28;20435;-37
2021/06/04 09:31:18;;;;;;;7.75;6.78;;;23.90;94.00;;;;;;5086863;28;20024;-37
2021/06/04 09:33:49;;;;;;;6.13;5.47;;;24.00;94.00;;;;;;5098120;28;20398;-40
2021/06/04 09:36:17;;;;;;;8.68;6.68;;;24.00;94.00;;;;;;5106890;28;20035;-40
2021/06/04 09:38:46;;;;;;;9.55;7.22;;;24.10;94.00;;;;;;5106089;28;20488;-42
2021/06/04 09:41:18;;;;;;;9.05;7.68;;;24.10;93.90;;;;;;5107533;28;20467;-39
2021/06/04 09:43:46;;;;;;;10.32;8.73;;;24.20;93.90;;;;;;5106001;28;20024;-40
2021/06/04 09:46:13;;;;;;;8.45;7.65;;;24.30;93.80;;;;;;5107367;28;20429;-40
2021/06/04 09:48:56;;;;;;;7.68;6.88;;;24.40;93.60;;;;;;5107453;28;20020;-41
2021/06/04 09:51:31;;;;;;;6.60;5.90;;;24.60;93.50;;;;;;5106933;28;20413;-40
2021/06/04 09:54:28;;;;;;;6.68;6.03;;;24.60;93.40;;;;;;5105843;28;20012;-40
2021/06/04 09:57:09;;;;;;;7.18;5.80;;;24.70;93.40;;;;;;5100915;28;20028;-40
2021/06/04 09:59:36;;;;;;;8.02;6.75;;;24.80;93.40;;;;;;5097645;28;20031;-40
2021/06/04 10:02:21;;;;;;;8.70;7.80;;;24.80;93.30;;;;;;5106235;28;20077;-40
2021/06/04 10:04:50;;;;;;;8.02;7.03;;;24.80;93.30;;;;;;5106150;28;20087;-40
2021/06/04 10:07:21;;;;;;;7.40;6.63;;;24.90;93.30;;;;;;5106151;28;20036;-40
2021/06/04 10:09:48;;;;;;;7.10;6.40;;;24.90;93.30;;;;;;5106519;28;20011;-39
2021/06/04 10:12:33;;;;;;;8.82;7.03;;;24.90;93.30;;;;;;5106531;28;20097;-39
2021/06/04 10:15:31;;;;;;;7.50;6.80;;;24.90;93.30;;;;;;5106798;28;20072;-40
2021/06/04 10:20:26;;;;;;;6.70;6.10;;;24.70;93.20;;;;;;5106216;28;20047;-40
2021/06/04 10:23:01;;;;;;;6.03;5.22;;;24.60;93.20;;;;;;5106729;28;20363;-40
2021/06/04 10:25:34;;;;;;;8.75;6.70;;;24.60;93.30;;;;;;5106941;28;20032;-41
2021/06/04 10:28:00;;;;;;;5.88;5.28;;;24.60;93.20;;;;;;5106493;28;20093;-39
2021/06/04 10:30:35;;;;;;;6.03;4.90;;;24.60;93.30;;;;;;5106709;28;20055;-41
2021/06/04 10:33:22;;;;;;;5.57;5.07;;;24.60;93.30;;;;;;5106702;28;20096;-41
2021/06/04 10:35:56;;;;;;;4.63;4.22;;;24.70;93.30;;;;;;5105903;28;20073;-40
2021/06/04 10:38:32;;;;;;;5.35;4.65;;;24.80;93.20;;;;;;5106594;28;20454;-38
2021/06/04 10:41:06;;;;;;;7.80;4.80;;;24.90;93.10;;;;;;5105160;28;20095;-43
2021/06/04 10:43:50;;;;;;;5.82;4.72;;;25.10;93.00;;;;;;5105585;28;20020;-39
2021/06/04 10:46:36;;;;;;;5.57;5.07;;;25.30;92.90;;;;;;5106167;28;20012;-40
2021/06/04 10:49:32;;;;;;;5.60;5.07;;;25.40;92.80;;;;;;5105769;28;20051;-37
2021/06/04 10:52:22;;;;;;;7.10;5.10;;;25.60;92.60;;;;;;5108935;28;20117;-40
2021/06/04 10:54:53;;;;;;;5.90;5.30;;;25.70;92.40;;;;;;5088010;28;20038;-40
2021/06/04 10:57:44;;;;;;;5.20;4.70;;;25.90;92.10;;;;;;5106788;28;20224;-39
2021/06/04 11:00:17;;;;;;;5.20;4.80;;;26.00;91.90;;;;;;5108909;28;20043;-38
2021/06/04 11:03:00;;;;;;;5.18;4.78;;;26.10;91.70;;;;;;5109279;28;20504;-39
2021/06/04 11:05:57;;;;;;;5.05;4.63;;;26.30;91.50;;;;;;5110090;28;20031;-41
2021/06/04 11:08:51;;;;;;;5.53;5.03;;;26.40;91.40;;;;;;5107306;28;20050;-40
2021/06/04 11:11:25;;;;;;;5.05;4.47;;;26.60;91.10;;;;;;5109834;28;20196;-40
2021/06/04 11:14:01;;;;;;;4.80;4.40;;;26.70;91.00;;;;;;5098405;28;20494;-40
2021/06/04 11:16:37;;;;;;;4.55;4.25;;;26.80;90.90;;;;;;5109848;28;20039;-40
2021/06/04 11:19:42;;;;;;;5.72;5.13;;;26.90;90.70;;;;;;5098527;28;20172;-39
2021/06/04 11:22:32;;;;;;;5.55;5.05;;;27.00;90.40;;;;;;5108911;28;20031;-40
2021/06/04 11:25:26;;;;;;;5.53;5.03;;;27.00;90.40;;;;;;5109804;28;20361;-39
2021/06/04 11:28:13;;;;;;;5.07;4.57;;;26.90;90.30;;;;;;5109645;28;20033;-38
2021/06/04 11:30:39;;;;;;;5.57;5.07;;;26.90;90.30;;;;;;5109247;28;20066;-39
2021/06/04 11:33:15;;;;;;;5.55;5.05;;;26.90;90.20;;;;;;5108928;28;20119;-39
2021/06/04 11:35:48;;;;;;;5.88;5.38;;;26.80;90.00;;;;;;5109321;28;20039;-41
2021/06/04 11:38:38;;;;;;;6.25;5.30;;;26.80;89.50;;;;;;5109134;28;20019;-41
2021/06/04 11:41:13;;;;;;;6.15;5.55;;;26.80;89.10;;;;;;5088781;28;20123;-41
2021/06/04 11:43:42;;;;;;;6.15;5.60;;;26.80;89.00;;;;;;5104305;28;20047;-41
2021/06/04 11:46:25;;;;;;;6.22;5.63;;;26.80;88.00;;;;;;5108935;28;20061;-43
2021/06/04 11:49:11;;;;;;;5.53;5.03;;;26.80;88.10;;;;;;5109062;28;20031;-40
2021/06/04 11:51:43;;;;;;;6.68;5.13;;;26.80;88.90;;;;;;5088861;28;20051;-40
2021/06/04 11:54:30;;;;;;;5.70;5.10;;;26.70;87.70;;;;;;5105581;28;20107;-40
2021/06/04 11:57:05;;;;;;;5.78;5.07;;;26.80;87.60;;;;;;5108101;28;20489;-44
2021/06/04 11:59:42;;;;;;;5.75;5.25;;;26.90;87.40;;;;;;5109142;28;20028;-39
2021/06/04 12:02:09;;;;;;;6.15;5.60;;;26.90;87.00;;;;;;5108657;28;20043;-40
2021/06/04 12:04:35;;;;;;;5.70;5.20;;;26.90;86.70;;;;;;5108737;28;20072;-41
2021/06/04 12:07:35;;;;;;;5.53;5.03;;;26.90;86.70;;;;;;5109150;28;20106;-40
2021/06/04 12:10:00;;;;;;;5.57;4.97;;;27.00;86.70;;;;;;5103046;28;20230;-42
2021/06/04 12:12:26;;;;;;;5.18;4.65;;;27.10;86.40;;;;;;5108671;28;20237;-40
2021/06/04 12:14:54;;;;;;;5.60;5.13;;;27.10;85.70;;;;;;5108280;28;20088;-40
2021/06/04 12:17:43;;;;;;;6.28;4.90;;;27.20;85.30;;;;;;5109567;28;20080;-41
2021/06/04 12:20:26;;;;;;;5.95;5.10;;;27.40;85.20;;;;;;5107472;28;20027;-38
2021/06/04 12:22:57;;;;;;;5.43;4.93;;;27.50;84.00;;;;;;5108686;28;20088;-39
2021/06/04 12:25:49;;;;;;;5.43;4.90;;;27.50;83.80;;;;;;5108620;28;20034;-39
2021/06/04 12:28:38;;;;;;;5.50;4.93;;;27.50;83.70;;;;;;5108581;28;20491;-40
2021/06/04 12:31:08;;;;;;;6.45;5.80;;;27.50;84.30;;;;;;5107873;28;20442;-38
2021/06/04 12:33:36;;;;;;;5.60;5.10;;;27.50;85.00;;;;;;5108114;28;20028;-40
2021/06/04 12:36:03;;;;;;;6.03;5.53;;;27.60;85.50;;;;;;5107559;28;20098;-40
2021/06/04 12:38:33;;;;;;;8.02;6.82;;;27.60;85.80;;;;;;5108303;28;20441;-40
2021/06/04 12:41:07;;;;;;;7.47;5.78;;;27.70;86.20;;;;;;5107299;28;20122;-42
2021/06/04 12:43:34;;;;;;;6.05;5.50;;;27.80;85.90;;;;;;5108980;28;20039;-40
2021/06/04 12:46:13;;;;;;;6.45;5.80;;;27.70;85.50;;;;;;5107261;28;20028;-40
2021/06/04 12:48:41;;;;;;;6.07;5.55;;;27.80;85.20;;;;;;5108710;28;20028;-40
2021/06/04 12:51:22;;;;;;;6.55;5.47;;;27.80;84.80;;;;;;5108261;28;20039;-40
2021/06/04 12:53:51;;;;;;;6.18;5.68;;;27.90;84.30;;;;;;5108056;28;20034;-40
2021/06/04 12:56:25;;;;;;;6.07;5.45;;;27.90;83.50;;;;;;5107665;28;20304;-42
2021/06/04 12:59:03;;;;;;;6.03;5.53;;;27.80;83.60;;;;;;5107719;28;20030;-39
2021/06/04 13:01:53;;;;;;;5.57;5.15;;;27.80;83.90;;;;;;5107390;28;20053;-39
2021/06/04 13:04:42;;;;;;;6.55;5.50;;;27.80;84.20;;;;;;5108455;28;20430;-40
2021/06/04 13:07:32;;;;;;;5.78;5.28;;;27.80;84.20;;;;;;5107654;28;20062;-39